Sign-in with your pilot id or email, or register

ICAO: LZTT Name / Country: Poprad-Tatry Airport / Slovakia
Latitude: 49.0736 Longitude: 20.2411
Total Arrivals:
Strict Standards: Non-static method AirportData::getarrflights() should not be called statically, assuming $this from incompatible context in /var/www/customers/vh-7192/web/home/phpvms/core/templates/airport_info.tpl on line 18
3
Total Departures:
Strict Standards: Non-static method AirportData::getdeptflights() should not be called statically, assuming $this from incompatible context in /var/www/customers/vh-7192/web/home/phpvms/core/templates/airport_info.tpl on line 21
3
Latest Arrival: MTA324 (LHBP-LZTT) Tibor Berces Latest Departure: MTA325 (LZTT-LHBP) Tibor Berces
Metar: LZTT 172300Z 08011KT 030V130 9999 FEW030 BKN046 09/05 Q1012
More info

Charts for LZTT


NOTAM


Warning: file_get_contents(http://api.vateud.net/notams/LZTT.json): failed to open stream: Redirection limit reached, aborting in /var/www/customers/vh-7192/web/home/phpvms/core/common/NOTAMSData.class.php on line 18

Warning: Invalid argument supplied for foreach() in /var/www/customers/vh-7192/web/home/phpvms/core/common/NOTAMSData.class.php on line 22

Poprad-Tatry Airport